sensor_id;sensor_type;location;lat;lon;timestamp;temperature;humidity
1786;DHT22;890;48.158;11.540;2022-10-31T00:02:00;14.90;88.10
1786;DHT22;890;48.158;11.540;2022-10-31T00:04:25;14.90;88.10
1786;DHT22;890;48.158;11.540;2022-10-31T00:06:51;14.80;88.10
1786;DHT22;890;48.158;11.540;2022-10-31T00:09:16;14.80;88.00
1786;DHT22;890;48.158;11.540;2022-10-31T00:11:44;14.70;88.20
1786;DHT22;890;48.158;11.540;2022-10-31T00:14:12;13.40;86.90
1786;DHT22;890;48.158;11.540;2022-10-31T00:16:38;14.80;88.70
1786;DHT22;890;48.158;11.540;2022-10-31T00:19:05;14.80;88.80
1786;DHT22;890;48.158;11.540;2022-10-31T00:21:31;14.80;88.80
1786;DHT22;890;48.158;11.540;2022-10-31T00:23:58;14.80;88.80
1786;DHT22;890;48.158;11.540;2022-10-31T00:26:26;14.80;89.00
1786;DHT22;890;48.158;11.540;2022-10-31T00:28:51;14.80;88.90
1786;DHT22;890;48.158;11.540;2022-10-31T00:31:17;14.80;89.00
1786;DHT22;890;48.158;11.540;2022-10-31T00:33:43;14.80;89.10
1786;DHT22;890;48.158;11.540;2022-10-31T00:36:16;14.80;89.10
1786;DHT22;890;48.158;11.540;2022-10-31T00:38:43;14.80;89.20
1786;DHT22;890;48.158;11.540;2022-10-31T00:41:10;14.80;89.10
1786;DHT22;890;48.158;11.540;2022-10-31T00:43:36;14.80;89.30
1786;DHT22;890;48.158;11.540;2022-10-31T00:46:02;14.80;89.20
1786;DHT22;890;48.158;11.540;2022-10-31T00:48:27;14.70;89.20
1786;DHT22;890;48.158;11.540;2022-10-31T00:50:53;14.70;89.30
1786;DHT22;890;48.158;11.540;2022-10-31T00:53:19;14.70;89.30
1786;DHT22;890;48.158;11.540;2022-10-31T00:55:44;14.70;89.40
1786;DHT22;890;48.158;11.540;2022-10-31T00:58:10;14.70;89.40
1786;DHT22;890;48.158;11.540;2022-10-31T01:00:35;14.70;89.50
1786;DHT22;890;48.158;11.540;2022-10-31T01:03:01;14.70;89.50
1786;DHT22;890;48.158;11.540;2022-10-31T01:05:27;14.70;89.50
1786;DHT22;890;48.158;11.540;2022-10-31T01:07:52;14.70;89.50
1786;DHT22;890;48.158;11.540;2022-10-31T01:10:18;14.70;89.50
1786;DHT22;890;48.158;11.540;2022-10-31T01:12:47;14.60;89.40
1786;DHT22;890;48.158;11.540;2022-10-31T01:15:16;14.60;89.50
1786;DHT22;890;48.158;11.540;2022-10-31T01:17:42;14.60;89.60
1786;DHT22;890;48.158;11.540;2022-10-31T01:20:09;14.70;89.70
1786;DHT22;890;48.158;11.540;2022-10-31T01:22:34;14.60;89.90
1786;DHT22;890;48.158;11.540;2022-10-31T01:25:00;14.60;90.00
1786;DHT22;890;48.158;11.540;2022-10-31T01:27:26;14.50;89.90
1786;DHT22;890;48.158;11.540;2022-10-31T01:29:51;14.50;89.90
1786;DHT22;890;48.158;11.540;2022-10-31T01:32:17;14.50;89.80
1786;DHT22;890;48.158;11.540;2022-10-31T01:34:42;14.50;90.00
1786;DHT22;890;48.158;11.540;2022-10-31T01:37:08;14.50;89.90
1786;DHT22;890;48.158;11.540;2022-10-31T01:39:33;14.50;90.00
1786;DHT22;890;48.158;11.540;2022-10-31T01:41:59;14.50;90.00
1786;DHT22;890;48.158;11.540;2022-10-31T01:47:00;14.50;90.00
1786;DHT22;890;48.158;11.540;2022-10-31T01:49:33;14.40;89.90
1786;DHT22;890;48.158;11.540;2022-10-31T01:52:14;14.40;89.80
1786;DHT22;890;48.158;11.540;2022-10-31T01:54:54;14.30;89.70
1786;DHT22;890;48.158;11.540;2022-10-31T01:57:24;14.40;89.90
1786;DHT22;890;48.158;11.540;2022-10-31T01:59:54;14.40;89.80
1786;DHT22;890;48.158;11.540;2022-10-31T02:02:20;14.30;89.90
1786;DHT22;890;48.158;11.540;2022-10-31T02:04:47;14.30;89.80
1786;DHT22;890;48.158;11.540;2022-10-31T02:07:16;14.30;90.30
1786;DHT22;890;48.158;11.540;2022-10-31T02:09:45;14.20;90.00
1786;DHT22;890;48.158;11.540;2022-10-31T02:12:12;14.10;90.40
1786;DHT22;890;48.158;11.540;2022-10-31T02:14:37;14.00;90.10
1786;DHT22;890;48.158;11.540;2022-10-31T02:17:05;14.00;90.20
1786;DHT22;890;48.158;11.540;2022-10-31T02:25:08;13.90;90.10
1786;DHT22;890;48.158;11.540;2022-10-31T02:30:17;13.80;90.10
1786;DHT22;890;48.158;11.540;2022-10-31T02:33:07;13.90;90.20
1786;DHT22;890;48.158;11.540;2022-10-31T02:35:50;13.80;90.20
1786;DHT22;890;48.158;11.540;2022-10-31T02:41:04;13.80;90.30
1786;DHT22;890;48.158;11.540;2022-10-31T02:46:09;13.80;90.20
1786;DHT22;890;48.158;11.540;2022-10-31T02:48:37;13.80;90.20
1786;DHT22;890;48.158;11.540;2022-10-31T02:51:05;13.80;90.20
1786;DHT22;890;48.158;11.540;2022-10-31T02:53:34;13.90;90.30
1786;DHT22;890;48.158;11.540;2022-10-31T02:56:19;13.80;90.20
1786;DHT22;890;48.158;11.540;2022-10-31T02:58:49;13.70;90.10
1786;DHT22;890;48.158;11.540;2022-10-31T03:06:57;13.80;90.30
1786;DHT22;890;48.158;11.540;2022-10-31T03:12:07;13.80;90.30
1786;DHT22;890;48.158;11.540;2022-10-31T03:17:13;13.60;90.30
1786;DHT22;890;48.158;11.540;2022-10-31T03:19:43;13.70;90.40
1786;DHT22;890;48.158;11.540;2022-10-31T03:22:17;13.70;90.40
1786;DHT22;890;48.158;11.540;2022-10-31T03:24:46;13.70;90.40
1786;DHT22;890;48.158;11.540;2022-10-31T03:27:16;13.70;90.40
1786;DHT22;890;48.158;11.540;2022-10-31T03:29:43;13.70;90.40
1786;DHT22;890;48.158;11.540;2022-10-31T03:32:15;13.70;90.40
1786;DHT22;890;48.158;11.540;2022-10-31T03:34:43;13.60;90.40
1786;DHT22;890;48.158;11.540;2022-10-31T03:37:13;13.70;90.50
1786;DHT22;890;48.158;11.540;2022-10-31T03:39:41;13.70;90.40
1786;DHT22;890;48.158;11.540;2022-10-31T03:42:23;13.60;90.40
1786;DHT22;890;48.158;11.540;2022-10-31T03:45:17;13.60;90.40
1786;DHT22;890;48.158;11.540;2022-10-31T03:47:44;13.50;90.40
1786;DHT22;890;48.158;11.540;2022-10-31T03:50:13;13.60;90.50
1786;DHT22;890;48.158;11.540;2022-10-31T03:53:22;13.60;90.50
1786;DHT22;890;48.158;11.540;2022-10-31T03:55:54;13.50;90.40
1786;DHT22;890;48.158;11.540;2022-10-31T03:58:29;13.50;90.50
1786;DHT22;890;48.158;11.540;2022-10-31T04:01:00;13.50;90.50
1786;DHT22;890;48.158;11.540;2022-10-31T04:03:28;13.50;90.60
1786;DHT22;890;48.158;11.540;2022-10-31T04:06:05;13.50;90.60
1786;DHT22;890;48.158;11.540;2022-10-31T04:08:33;13.40;90.60
1786;DHT22;890;48.158;11.540;2022-10-31T04:11:02;13.50;91.00
1786;DHT22;890;48.158;11.540;2022-10-31T04:13:31;13.40;90.60
1786;DHT22;890;48.158;11.540;2022-10-31T04:15:59;13.40;90.60
1786;DHT22;890;48.158;11.540;2022-10-31T04:18:25;13.40;90.70
1786;DHT22;890;48.158;11.540;2022-10-31T04:21:03;13.40;90.70
1786;DHT22;890;48.158;11.540;2022-10-31T04:23:29;13.30;90.80
1786;DHT22;890;48.158;11.540;2022-10-31T04:25:55;13.30;90.90
1786;DHT22;890;48.158;11.540;2022-10-31T04:28:21;13.30;90.90
1786;DHT22;890;48.158;11.540;2022-10-31T04:30:46;13.30;91.00
1786;DHT22;890;48.158;11.540;2022-10-31T04:33:12;13.30;91.10
1786;DHT22;890;48.158;11.540;2022-10-31T04:35:37;13.30;91.10
1786;DHT22;890;48.158;11.540;2022-10-31T04:38:03;13.30;91.10
1786;DHT22;890;48.158;11.540;2022-10-31T04:40:28;13.30;91.20
1786;DHT22;890;48.158;11.540;2022-10-31T04:42:54;13.40;91.20
1786;DHT22;890;48.158;11.540;2022-10-31T04:45:20;13.30;91.10
1786;DHT22;890;48.158;11.540;2022-10-31T04:47:45;13.30;91.20
1786;DHT22;890;48.158;11.540;2022-10-31T04:50:11;13.30;91.20
1786;DHT22;890;48.158;11.540;2022-10-31T04:52:43;13.30;91.40
1786;DHT22;890;48.158;11.540;2022-10-31T04:55:09;13.20;91.00
1786;DHT22;890;48.158;11.540;2022-10-31T04:57:46;13.30;91.10
1786;DHT22;890;48.158;11.540;2022-10-31T05:00:14;13.20;91.00
1786;DHT22;890;48.158;11.540;2022-10-31T05:02:50;13.30;91.00
1786;DHT22;890;48.158;11.540;2022-10-31T05:05:18;13.20;91.10
1786;DHT22;890;48.158;11.540;2022-10-31T05:07:46;13.30;91.10
1786;DHT22;890;48.158;11.540;2022-10-31T05:10:14;13.20;91.00
1786;DHT22;890;48.158;11.540;2022-10-31T05:12:58;13.30;91.10
1786;DHT22;890;48.158;11.540;2022-10-31T05:15:25;13.20;91.00
1786;DHT22;890;48.158;11.540;2022-10-31T05:17:51;13.30;91.00
1786;DHT22;890;48.158;11.540;2022-10-31T05:20:18;13.30;91.10
1786;DHT22;890;48.158;11.540;2022-10-31T05:22:48;13.30;91.10
1786;DHT22;890;48.158;11.540;2022-10-31T05:25:15;13.20;91.00
1786;DHT22;890;48.158;11.540;2022-10-31T05:27:46;13.20;91.00
1786;DHT22;890;48.158;11.540;2022-10-31T05:30:13;13.10;91.10
1786;DHT22;890;48.158;11.540;2022-10-31T05:32:40;13.20;91.20
1786;DHT22;890;48.158;11.540;2022-10-31T05:35:07;13.20;91.50
1786;DHT22;890;48.158;11.540;2022-10-31T05:37:36;13.10;91.20
1786;DHT22;890;48.158;11.540;2022-10-31T05:40:03;13.10;91.20
1786;DHT22;890;48.158;11.540;2022-10-31T05:42:29;13.10;91.30
1786;DHT22;890;48.158;11.540;2022-10-31T05:44:54;13.20;91.40
1786;DHT22;890;48.158;11.540;2022-10-31T05:47:20;13.20;91.40
1786;DHT22;890;48.158;11.540;2022-10-31T05:49:45;13.10;91.40
1786;DHT22;890;48.158;11.540;2022-10-31T05:52:11;13.10;91.40
1786;DHT22;890;48.158;11.540;2022-10-31T05:54:37;13.20;91.40
1786;DHT22;890;48.158;11.540;2022-10-31T05:57:02;13.20;91.40
1786;DHT22;890;48.158;11.540;2022-10-31T05:59:28;13.10;91.40
1786;DHT22;890;48.158;11.540;2022-10-31T06:01:53;13.10;91.50
1786;DHT22;890;48.158;11.540;2022-10-31T06:04:19;13.10;91.60
1786;DHT22;890;48.158;11.540;2022-10-31T06:06:45;13.10;91.70
1786;DHT22;890;48.158;11.540;2022-10-31T06:09:10;13.00;91.80
1786;DHT22;890;48.158;11.540;2022-10-31T06:11:36;13.10;91.90
1786;DHT22;890;48.158;11.540;2022-10-31T06:14:01;13.10;91.90
1786;DHT22;890;48.158;11.540;2022-10-31T06:16:27;13.10;91.80
1786;DHT22;890;48.158;11.540;2022-10-31T06:18:54;13.10;91.70
1786;DHT22;890;48.158;11.540;2022-10-31T06:21:19;13.20;91.70
1786;DHT22;890;48.158;11.540;2022-10-31T06:23:45;13.20;91.70
1786;DHT22;890;48.158;11.540;2022-10-31T06:26:10;13.20;92.00
1786;DHT22;890;48.158;11.540;2022-10-31T06:28:36;13.20;91.70
1786;DHT22;890;48.158;11.540;2022-10-31T06:31:02;13.30;91.70
1786;DHT22;890;48.158;11.540;2022-10-31T06:33:27;13.30;91.60
1786;DHT22;890;48.158;11.540;2022-10-31T06:35:53;13.30;91.60
1786;DHT22;890;48.158;11.540;2022-10-31T06:38:18;13.40;91.60
1786;DHT22;890;48.158;11.540;2022-10-31T06:40:44;13.40;91.60
1786;DHT22;890;48.158;11.540;2022-10-31T06:43:09;13.40;91.50
1786;DHT22;890;48.158;11.540;2022-10-31T06:45:36;13.50;91.60
1786;DHT22;890;48.158;11.540;2022-10-31T06:51:15;13.50;91.50
1786;DHT22;890;48.158;11.540;2022-10-31T06:53:40;13.70;91.50
1786;DHT22;890;48.158;11.540;2022-10-31T06:56:06;13.70;91.30
1786;DHT22;890;48.158;11.540;2022-10-31T06:58:32;13.70;91.20
1786;DHT22;890;48.158;11.540;2022-10-31T07:01:01;13.80;91.10
1786;DHT22;890;48.158;11.540;2022-10-31T07:03:26;13.80;90.90
1786;DHT22;890;48.158;11.540;2022-10-31T07:05:52;13.80;91.00
1786;DHT22;890;48.158;11.540;2022-10-31T07:08:19;13.90;90.80
1786;DHT22;890;48.158;11.540;2022-10-31T07:10:51;13.90;90.70
1786;DHT22;890;48.158;11.540;2022-10-31T07:13:17;13.90;90.70
1786;DHT22;890;48.158;11.540;2022-10-31T07:15:43;14.10;90.70
1786;DHT22;890;48.158;11.540;2022-10-31T07:18:11;14.10;90.50
1786;DHT22;890;48.158;11.540;2022-10-31T07:20:37;14.20;90.40
1786;DHT22;890;48.158;11.540;2022-10-31T07:23:03;14.20;90.40
1786;DHT22;890;48.158;11.540;2022-10-31T07:25:29;14.30;90.30
1786;DHT22;890;48.158;11.540;2022-10-31T07:27:55;14.40;90.10
1786;DHT22;890;48.158;11.540;2022-10-31T07:30:20;14.50;90.10
1786;DHT22;890;48.158;11.540;2022-10-31T07:32:48;14.60;90.00
1786;DHT22;890;48.158;11.540;2022-10-31T07:35:17;14.60;89.70
1786;DHT22;890;48.158;11.540;2022-10-31T07:37:43;14.70;89.50
1786;DHT22;890;48.158;11.540;2022-10-31T07:40:09;14.80;89.00
1786;DHT22;890;48.158;11.540;2022-10-31T07:42:36;14.90;88.50
1786;DHT22;890;48.158;11.540;2022-10-31T07:45:06;15.10;88.20
1786;DHT22;890;48.158;11.540;2022-10-31T07:47:42;15.10;88.00
1786;DHT22;890;48.158;11.540;2022-10-31T07:50:10;15.10;87.60
1786;DHT22;890;48.158;11.540;2022-10-31T07:55:58;15.20;87.10
1786;DHT22;890;48.158;11.540;2022-10-31T07:58:23;15.40;87.40
1786;DHT22;890;48.158;11.540;2022-10-31T08:00:50;15.40;87.10
1786;DHT22;890;48.158;11.540;2022-10-31T08:03:17;15.50;86.80
1786;DHT22;890;48.158;11.540;2022-10-31T08:05:43;15.60;86.60
1786;DHT22;890;48.158;11.540;2022-10-31T08:08:13;15.70;86.40
1786;DHT22;890;48.158;11.540;2022-10-31T08:10:39;15.90;86.10
1786;DHT22;890;48.158;11.540;2022-10-31T08:13:11;15.90;85.90
1786;DHT22;890;48.158;11.540;2022-10-31T08:15:37;16.00;85.80
1786;DHT22;890;48.158;11.540;2022-10-31T08:18:14;16.10;85.60
1786;DHT22;890;48.158;11.540;2022-10-31T08:20:41;16.10;85.00
1786;DHT22;890;48.158;11.540;2022-10-31T08:23:06;16.30;85.10
1786;DHT22;890;48.158;11.540;2022-10-31T08:25:33;16.50;85.40
1786;DHT22;890;48.158;11.540;2022-10-31T08:27:59;16.70;85.80
1786;DHT22;890;48.158;11.540;2022-10-31T08:30:28;16.90;86.30
1786;DHT22;890;48.158;11.540;2022-10-31T08:33:02;17.20;87.10
1786;DHT22;890;48.158;11.540;2022-10-31T08:35:28;17.60;87.70
1786;DHT22;890;48.158;11.540;2022-10-31T08:37:55;18.30;90.10
1786;DHT22;890;48.158;11.540;2022-10-31T08:40:22;19.00;92.30
1786;DHT22;890;48.158;11.540;2022-10-31T08:42:47;19.90;93.10
1786;DHT22;890;48.158;11.540;2022-10-31T08:45:13;20.80;92.60
1786;DHT22;890;48.158;11.540;2022-10-31T08:47:39;21.70;91.70
1786;DHT22;890;48.158;11.540;2022-10-31T08:50:05;22.40;89.60
1786;DHT22;890;48.158;11.540;2022-10-31T08:52:30;23.20;88.20
1786;DHT22;890;48.158;11.540;2022-10-31T08:54:56;23.80;82.30
1786;DHT22;890;48.158;11.540;2022-10-31T08:57:22;24.20;77.70
1786;DHT22;890;48.158;11.540;2022-10-31T08:59:47;24.20;72.60
1786;DHT22;890;48.158;11.540;2022-10-31T09:02:13;24.10;68.70
1786;DHT22;890;48.158;11.540;2022-10-31T09:04:38;23.80;67.50
1786;DHT22;890;48.158;11.540;2022-10-31T09:07:04;23.30;67.60
1786;DHT22;890;48.158;11.540;2022-10-31T09:09:29;23.20;66.70
1786;DHT22;890;48.158;11.540;2022-10-31T09:11:55;23.30;67.10
1786;DHT22;890;48.158;11.540;2022-10-31T09:14:20;23.40;67.10
1786;DHT22;890;48.158;11.540;2022-10-31T09:16:46;23.40;64.40
1786;DHT22;890;48.158;11.540;2022-10-31T09:19:11;23.50;63.00
1786;DHT22;890;48.158;11.540;2022-10-31T09:21:37;23.60;63.80
1786;DHT22;890;48.158;11.540;2022-10-31T09:24:03;23.90;64.00
1786;DHT22;890;48.158;11.540;2022-10-31T09:26:28;24.20;65.10
1786;DHT22;890;48.158;11.540;2022-10-31T09:28:54;24.80;68.70
1786;DHT22;890;48.158;11.540;2022-10-31T09:31:20;25.60;68.90
1786;DHT22;890;48.158;11.540;2022-10-31T09:33:45;26.80;69.80
1786;DHT22;890;48.158;11.540;2022-10-31T09:36:11;28.00;69.10
1786;DHT22;890;48.158;11.540;2022-10-31T09:38:36;29.60;65.60
1786;DHT22;890;48.158;11.540;2022-10-31T09:43:50;31.00;54.40
1786;DHT22;890;48.158;11.540;2022-10-31T09:52:50;29.70;46.70
1786;DHT22;890;48.158;11.540;2022-10-31T09:55:34;28.60;48.00
1786;DHT22;890;48.158;11.540;2022-10-31T09:58:01;27.90;48.10
1786;DHT22;890;48.158;11.540;2022-10-31T10:00:27;27.30;49.30
1786;DHT22;890;48.158;11.540;2022-10-31T10:02:57;27.10;49.00
1786;DHT22;890;48.158;11.540;2022-10-31T10:05:31;26.70;48.40
1786;DHT22;890;48.158;11.540;2022-10-31T10:15:52;26.20;49.50
1786;DHT22;890;48.158;11.540;2022-10-31T10:18:23;26.30;49.70
1786;DHT22;890;48.158;11.540;2022-10-31T10:20:57;26.40;48.80
1786;DHT22;890;48.158;11.540;2022-10-31T10:26:05;26.10;48.60
1786;DHT22;890;48.158;11.540;2022-10-31T10:28:38;26.00;48.10
1786;DHT22;890;48.158;11.540;2022-10-31T10:31:14;25.90;48.00
1786;DHT22;890;48.158;11.540;2022-10-31T10:33:52;25.70;48.00
1786;DHT22;890;48.158;11.540;2022-10-31T10:36:30;25.40;47.70
1786;DHT22;890;48.158;11.540;2022-10-31T10:39:07;25.20;48.40
1786;DHT22;890;48.158;11.540;2022-10-31T10:41:44;25.00;48.80
1786;DHT22;890;48.158;11.540;2022-10-31T10:44:12;24.70;49.30
1786;DHT22;890;48.158;11.540;2022-10-31T10:49:32;24.40;49.20
1786;DHT22;890;48.158;11.540;2022-10-31T10:52:07;24.20;49.30
1786;DHT22;890;48.158;11.540;2022-10-31T10:59:44;23.60;50.00
1786;DHT22;890;48.158;11.540;2022-10-31T11:02:31;23.50;50.00
1786;DHT22;890;48.158;11.540;2022-10-31T11:05:00;23.20;50.40
1786;DHT22;890;48.158;11.540;2022-10-31T11:07:40;23.20;50.40
1786;DHT22;890;48.158;11.540;2022-10-31T11:10:11;23.10;50.80
1786;DHT22;890;48.158;11.540;2022-10-31T11:12:39;23.00;51.10
1786;DHT22;890;48.158;11.540;2022-10-31T11:15:25;23.00;51.20
1786;DHT22;890;48.158;11.540;2022-10-31T11:17:53;22.70;51.10
1786;DHT22;890;48.158;11.540;2022-10-31T11:22:46;22.80;51.50
1786;DHT22;890;48.158;11.540;2022-10-31T11:25:23;22.90;51.60
1786;DHT22;890;48.158;11.540;2022-10-31T11:28:08;22.90;51.70
1786;DHT22;890;48.158;11.540;2022-10-31T11:30:46;23.20;51.70
1786;DHT22;890;48.158;11.540;2022-10-31T11:33:35;23.50;51.30
1786;DHT22;890;48.158;11.540;2022-10-31T11:36:13;23.60;51.30
1786;DHT22;890;48.158;11.540;2022-10-31T11:38:42;24.00;51.70
1786;DHT22;890;48.158;11.540;2022-10-31T11:41:10;24.30;51.30
1786;DHT22;890;48.158;11.540;2022-10-31T11:43:36;24.60;50.80
1786;DHT22;890;48.158;11.540;2022-10-31T11:46:14;24.60;50.30
1786;DHT22;890;48.158;11.540;2022-10-31T11:48:50;24.60;50.40
1786;DHT22;890;48.158;11.540;2022-10-31T11:51:31;24.70;50.10
1786;DHT22;890;48.158;11.540;2022-10-31T11:53:59;24.90;50.30
1786;DHT22;890;48.158;11.540;2022-10-31T11:56:26;25.40;51.10
1786;DHT22;890;48.158;11.540;2022-10-31T11:59:06;25.60;50.60
1786;DHT22;890;48.158;11.540;2022-10-31T12:01:40;25.80;49.50
1786;DHT22;890;48.158;11.540;2022-10-31T12:04:12;25.80;47.80
1786;DHT22;890;48.158;11.540;2022-10-31T12:06:40;25.40;46.90
1786;DHT22;890;48.158;11.540;2022-10-31T12:09:23;24.90;47.10
1786;DHT22;890;48.158;11.540;2022-10-31T12:12:15;24.30;47.20
1786;DHT22;890;48.158;11.540;2022-10-31T12:17:28;23.50;48.60
1786;DHT22;890;48.158;11.540;2022-10-31T12:23:03;22.90;49.70
1786;DHT22;890;48.158;11.540;2022-10-31T12:25:50;22.60;50.60
1786;DHT22;890;48.158;11.540;2022-10-31T12:44:46;22.20;52.20
1786;DHT22;890;48.158;11.540;2022-10-31T12:47:35;22.20;52.60
1786;DHT22;890;48.158;11.540;2022-10-31T12:55:55;22.40;53.00
1786;DHT22;890;48.158;11.540;2022-10-31T13:01:16;22.20;53.30
1786;DHT22;890;48.158;11.540;2022-10-31T13:06:22;22.10;53.90
1786;DHT22;890;48.158;11.540;2022-10-31T13:08:56;22.10;54.20
1786;DHT22;890;48.158;11.540;2022-10-31T13:16:46;21.80;54.70
1786;DHT22;890;48.158;11.540;2022-10-31T13:19:28;22.00;54.90
1786;DHT22;890;48.158;11.540;2022-10-31T13:27:23;21.80;56.00
1786;DHT22;890;48.158;11.540;2022-10-31T13:30:05;21.80;55.60
1786;DHT22;890;48.158;11.540;2022-10-31T13:32:49;21.70;55.70
1786;DHT22;890;48.158;11.540;2022-10-31T13:35:41;21.70;55.90
1786;DHT22;890;48.158;11.540;2022-10-31T13:38:30;21.70;56.10
1786;DHT22;890;48.158;11.540;2022-10-31T13:41:04;21.60;56.30
1786;DHT22;890;48.158;11.540;2022-10-31T13:43:37;21.60;56.30
1786;DHT22;890;48.158;11.540;2022-10-31T13:46:24;21.60;56.20
1786;DHT22;890;48.158;11.540;2022-10-31T13:48:49;21.50;56.60
1786;DHT22;890;48.158;11.540;2022-10-31T13:51:31;21.60;56.70
1786;DHT22;890;48.158;11.540;2022-10-31T13:56:27;21.70;57.20
1786;DHT22;890;48.158;11.540;2022-10-31T13:59:05;21.70;57.20
1786;DHT22;890;48.158;11.540;2022-10-31T14:02:00;21.60;57.30
1786;DHT22;890;48.158;11.540;2022-10-31T14:07:14;21.50;57.70
1786;DHT22;890;48.158;11.540;2022-10-31T14:10:04;21.50;57.70
1786;DHT22;890;48.158;11.540;2022-10-31T14:12:40;21.40;57.80
1786;DHT22;890;48.158;11.540;2022-10-31T14:15:25;21.40;58.00
1786;DHT22;890;48.158;11.540;2022-10-31T14:28:52;21.10;59.90
1786;DHT22;890;48.158;11.540;2022-10-31T14:31:42;21.20;60.20
1786;DHT22;890;48.158;11.540;2022-10-31T14:45:20;20.80;62.80
1786;DHT22;890;48.158;11.540;2022-10-31T14:53:52;20.70;64.90
1786;DHT22;890;48.158;11.540;2022-10-31T14:56:26;20.60;66.30
1786;DHT22;890;48.158;11.540;2022-10-31T14:58:57;20.50;66.30
1786;DHT22;890;48.158;11.540;2022-10-31T15:01:30;20.50;66.50
1786;DHT22;890;48.158;11.540;2022-10-31T15:04:15;20.50;66.80
1786;DHT22;890;48.158;11.540;2022-10-31T15:06:45;20.40;67.60
1786;DHT22;890;48.158;11.540;2022-10-31T15:09:41;20.50;67.70
1786;DHT22;890;48.158;11.540;2022-10-31T15:12:30;20.30;68.10
1786;DHT22;890;48.158;11.540;2022-10-31T15:14:56;20.30;68.60
1786;DHT22;890;48.158;11.540;2022-10-31T15:17:24;20.40;68.90
1786;DHT22;890;48.158;11.540;2022-10-31T15:19:52;20.40;69.50
1786;DHT22;890;48.158;11.540;2022-10-31T15:22:22;20.40;70.70
1786;DHT22;890;48.158;11.540;2022-10-31T15:24:48;20.40;70.50
1786;DHT22;890;48.158;11.540;2022-10-31T15:27:21;20.30;71.10
1786;DHT22;890;48.158;11.540;2022-10-31T15:29:52;20.20;71.90
1786;DHT22;890;48.158;11.540;2022-10-31T15:32:26;20.10;72.70
1786;DHT22;890;48.158;11.540;2022-10-31T15:34:53;20.00;73.50
1786;DHT22;890;48.158;11.540;2022-10-31T15:37:21;19.90;74.20
1786;DHT22;890;48.158;11.540;2022-10-31T15:39:48;19.80;74.60
1786;DHT22;890;48.158;11.540;2022-10-31T15:42:28;19.80;74.80
1786;DHT22;890;48.158;11.540;2022-10-31T15:47:36;19.80;75.40
1786;DHT22;890;48.158;11.540;2022-10-31T15:50:05;19.80;75.30
1786;DHT22;890;48.158;11.540;2022-10-31T15:52:48;19.80;75.90
1786;DHT22;890;48.158;11.540;2022-10-31T15:55:26;19.60;76.60
1786;DHT22;890;48.158;11.540;2022-10-31T15:58:11;19.50;76.80
1786;DHT22;890;48.158;11.540;2022-10-31T16:00:37;19.40;77.30
1786;DHT22;890;48.158;11.540;2022-10-31T16:13:33;19.00;79.40
1786;DHT22;890;48.158;11.540;2022-10-31T16:16:12;18.90;80.00
1786;DHT22;890;48.158;11.540;2022-10-31T16:18:39;18.90;80.30
1786;DHT22;890;48.158;11.540;2022-10-31T16:21:06;18.90;80.30
1786;DHT22;890;48.158;11.540;2022-10-31T16:23:33;18.80;80.60
1786;DHT22;890;48.158;11.540;2022-10-31T16:25:59;18.80;80.90
1786;DHT22;890;48.158;11.540;2022-10-31T16:28:26;18.70;81.30
1786;DHT22;890;48.158;11.540;2022-10-31T16:30:56;18.60;81.70
1786;DHT22;890;48.158;11.540;2022-10-31T16:33:33;18.60;82.10
1786;DHT22;890;48.158;11.540;2022-10-31T16:36:27;18.50;82.60
1786;DHT22;890;48.158;11.540;2022-10-31T16:38:46;18.50;82.30
1786;DHT22;890;48.158;11.540;2022-10-31T16:41:12;18.50;82.50
1786;DHT22;890;48.158;11.540;2022-10-31T16:43:37;18.50;82.70
1786;DHT22;890;48.158;11.540;2022-10-31T16:46:03;18.50;83.00
1786;DHT22;890;48.158;11.540;2022-10-31T16:48:29;18.30;83.30
1786;DHT22;890;48.158;11.540;2022-10-31T16:50:55;18.30;83.30
1786;DHT22;890;48.158;11.540;2022-10-31T16:53:20;18.20;83.40
1786;DHT22;890;48.158;11.540;2022-10-31T16:55:50;18.20;83.90
1786;DHT22;890;48.158;11.540;2022-10-31T16:58:24;18.10;84.20
1786;DHT22;890;48.158;11.540;2022-10-31T17:00:51;18.00;84.50
1786;DHT22;890;48.158;11.540;2022-10-31T17:03:17;18.00;84.60
1786;DHT22;890;48.158;11.540;2022-10-31T17:05:42;17.90;84.70
1786;DHT22;890;48.158;11.540;2022-10-31T17:08:08;17.90;85.00
1786;DHT22;890;48.158;11.540;2022-10-31T17:10:34;17.90;85.50
1786;DHT22;890;48.158;11.540;2022-10-31T17:13:01;17.80;85.70
1786;DHT22;890;48.158;11.540;2022-10-31T17:15:37;17.80;85.90
1786;DHT22;890;48.158;11.540;2022-10-31T17:18:03;17.70;86.00
1786;DHT22;890;48.158;11.540;2022-10-31T17:20:30;17.70;86.40
1786;DHT22;890;48.158;11.540;2022-10-31T17:22:57;17.60;87.00
1786;DHT22;890;48.158;11.540;2022-10-31T17:25:26;17.50;87.20
1786;DHT22;890;48.158;11.540;2022-10-31T17:27:52;17.50;87.40
1786;DHT22;890;48.158;11.540;2022-10-31T17:30:19;17.50;88.00
1786;DHT22;890;48.158;11.540;2022-10-31T17:32:45;17.40;88.20
1786;DHT22;890;48.158;11.540;2022-10-31T17:35:12;17.40;88.30
1786;DHT22;890;48.158;11.540;2022-10-31T17:37:39;17.40;88.80
1786;DHT22;890;48.158;11.540;2022-10-31T17:40:10;17.30;89.10
1786;DHT22;890;48.158;11.540;2022-10-31T17:42:36;17.30;89.30
1786;DHT22;890;48.158;11.540;2022-10-31T17:45:06;17.30;89.30
1786;DHT22;890;48.158;11.540;2022-10-31T17:47:32;17.30;89.60
1786;DHT22;890;48.158;11.540;2022-10-31T17:49:58;17.20;89.70
1786;DHT22;890;48.158;11.540;2022-10-31T17:52:23;17.20;89.80
1786;DHT22;890;48.158;11.540;2022-10-31T17:54:49;17.20;90.00
1786;DHT22;890;48.158;11.540;2022-10-31T17:57:15;17.10;90.10
1786;DHT22;890;48.158;11.540;2022-10-31T17:59:41;17.10;90.30
1786;DHT22;890;48.158;11.540;2022-10-31T18:02:08;17.00;90.30
1786;DHT22;890;48.158;11.540;2022-10-31T18:04:35;17.00;90.50
1786;DHT22;890;48.158;11.540;2022-10-31T18:07:01;16.90;90.50
1786;DHT22;890;48.158;11.540;2022-10-31T18:09:27;16.90;90.50
1786;DHT22;890;48.158;11.540;2022-10-31T18:11:52;16.90;90.60
1786;DHT22;890;48.158;11.540;2022-10-31T18:14:18;16.90;90.70
1786;DHT22;890;48.158;11.540;2022-10-31T18:16:43;16.90;90.90
1786;DHT22;890;48.158;11.540;2022-10-31T18:19:11;16.80;90.90
1786;DHT22;890;48.158;11.540;2022-10-31T18:21:37;16.70;91.10
1786;DHT22;890;48.158;11.540;2022-10-31T18:24:03;16.70;91.20
1786;DHT22;890;48.158;11.540;2022-10-31T18:26:29;16.70;91.20
1786;DHT22;890;48.158;11.540;2022-10-31T18:28:55;16.60;91.40
1786;DHT22;890;48.158;11.540;2022-10-31T18:31:21;16.60;91.60
1786;DHT22;890;48.158;11.540;2022-10-31T18:33:46;16.50;91.50
1786;DHT22;890;48.158;11.540;2022-10-31T18:36:12;16.50;91.60
1786;DHT22;890;48.158;11.540;2022-10-31T18:38:39;16.40;91.70
1786;DHT22;890;48.158;11.540;2022-10-31T18:41:06;16.40;91.80
1786;DHT22;890;48.158;11.540;2022-10-31T18:43:32;16.30;92.00
1786;DHT22;890;48.158;11.540;2022-10-31T18:46:03;16.30;92.10
1786;DHT22;890;48.158;11.540;2022-10-31T18:48:29;16.30;92.10
1786;DHT22;890;48.158;11.540;2022-10-31T18:51:03;16.30;92.10
1786;DHT22;890;48.158;11.540;2022-10-31T18:53:28;16.20;92.30